sensor_id;sensor_type;location;lat;lon;timestamp;temperature;humidity
28677;DHT22;15858;48.338;11.078;2024-03-02T00:00:07;6.50;99.90
28677;DHT22;15858;48.338;11.078;2024-03-02T00:02:43;6.50;99.90
28677;DHT22;15858;48.338;11.078;2024-03-02T00:05:15;6.50;99.90
28677;DHT22;15858;48.338;11.078;2024-03-02T00:07:43;6.50;99.90
28677;DHT22;15858;48.338;11.078;2024-03-02T00:10:12;6.50;99.90
28677;DHT22;15858;48.338;11.078;2024-03-02T00:12:41;6.50;99.90
28677;DHT22;15858;48.338;11.078;2024-03-02T00:18:03;6.50;99.90
28677;DHT22;15858;48.338;11.078;2024-03-02T00:20:30;6.50;99.90
28677;DHT22;15858;48.338;11.078;2024-03-02T00:23:03;6.50;99.90
28677;DHT22;15858;48.338;11.078;2024-03-02T00:28:05;6.50;99.90
28677;DHT22;15858;48.338;11.078;2024-03-02T00:33:23;6.40;99.90
28677;DHT22;15858;48.338;11.078;2024-03-02T00:35:50;6.40;99.90
28677;DHT22;15858;48.338;11.078;2024-03-02T00:38:17;6.40;99.90
28677;DHT22;15858;48.338;11.078;2024-03-02T00:40:45;6.40;99.90
28677;DHT22;15858;48.338;11.078;2024-03-02T00:46:04;6.30;99.90
28677;DHT22;15858;48.338;11.078;2024-03-02T00:48:31;6.30;99.90
28677;DHT22;15858;48.338;11.078;2024-03-02T00:50:58;6.30;99.90
28677;DHT22;15858;48.338;11.078;2024-03-02T00:53:26;6.30;99.90
28677;DHT22;15858;48.338;11.078;2024-03-02T00:55:53;6.30;99.90
28677;DHT22;15858;48.338;11.078;2024-03-02T00:58:20;6.20;99.90
28677;DHT22;15858;48.338;11.078;2024-03-02T01:00:46;6.20;99.90
28677;DHT22;15858;48.338;11.078;2024-03-02T01:03:13;6.20;99.90
28677;DHT22;15858;48.338;11.078;2024-03-02T01:05:43;6.20;99.90
28677;DHT22;15858;48.338;11.078;2024-03-02T01:08:10;6.20;99.90
28677;DHT22;15858;48.338;11.078;2024-03-02T01:10:37;6.20;99.90
28677;DHT22;15858;48.338;11.078;2024-03-02T01:13:04;6.20;99.90
28677;DHT22;15858;48.338;11.078;2024-03-02T01:15:30;6.20;99.90
28677;DHT22;15858;48.338;11.078;2024-03-02T01:17:57;6.20;99.90
28677;DHT22;15858;48.338;11.078;2024-03-02T01:20:24;6.20;99.90
28677;DHT22;15858;48.338;11.078;2024-03-02T01:22:50;6.20;99.90
28677;DHT22;15858;48.338;11.078;2024-03-02T01:25:17;6.10;99.90
28677;DHT22;15858;48.338;11.078;2024-03-02T01:27:44;6.10;99.90
28677;DHT22;15858;48.338;11.078;2024-03-02T01:30:14;6.10;99.90
28677;DHT22;15858;48.338;11.078;2024-03-02T01:32:41;6.10;99.90
28677;DHT22;15858;48.338;11.078;2024-03-02T01:35:08;6.10;99.90
28677;DHT22;15858;48.338;11.078;2024-03-02T01:37:35;6.10;99.90
28677;DHT22;15858;48.338;11.078;2024-03-02T01:40:01;6.10;99.90
28677;DHT22;15858;48.338;11.078;2024-03-02T01:42:28;6.10;99.90
28677;DHT22;15858;48.338;11.078;2024-03-02T01:44:55;6.10;99.90
28677;DHT22;15858;48.338;11.078;2024-03-02T01:47:21;6.10;99.90
28677;DHT22;15858;48.338;11.078;2024-03-02T01:49:48;6.10;99.90
28677;DHT22;15858;48.338;11.078;2024-03-02T01:52:15;6.10;99.90
28677;DHT22;15858;48.338;11.078;2024-03-02T01:54:42;6.10;99.90
28677;DHT22;15858;48.338;11.078;2024-03-02T01:57:08;6.10;99.90
28677;DHT22;15858;48.338;11.078;2024-03-02T01:59:35;6.20;99.90
28677;DHT22;15858;48.338;11.078;2024-03-02T02:02:02;6.20;99.90
28677;DHT22;15858;48.338;11.078;2024-03-02T02:04:28;6.20;99.90
28677;DHT22;15858;48.338;11.078;2024-03-02T02:06:55;6.20;99.90
28677;DHT22;15858;48.338;11.078;2024-03-02T02:09:22;6.20;99.90
28677;DHT22;15858;48.338;11.078;2024-03-02T02:11:50;6.20;99.90
28677;DHT22;15858;48.338;11.078;2024-03-02T02:14:17;6.20;99.90
28677;DHT22;15858;48.338;11.078;2024-03-02T02:16:44;6.10;99.90
28677;DHT22;15858;48.338;11.078;2024-03-02T02:19:11;6.20;99.90
28677;DHT22;15858;48.338;11.078;2024-03-02T02:21:37;6.20;99.90
28677;DHT22;15858;48.338;11.078;2024-03-02T02:24:04;6.10;99.90
28677;DHT22;15858;48.338;11.078;2024-03-02T02:26:31;6.10;99.90
28677;DHT22;15858;48.338;11.078;2024-03-02T02:28:58;6.10;99.90
28677;DHT22;15858;48.338;11.078;2024-03-02T02:31:24;6.10;99.90
28677;DHT22;15858;48.338;11.078;2024-03-02T02:33:51;6.10;99.90
28677;DHT22;15858;48.338;11.078;2024-03-02T02:36:18;6.10;99.90
28677;DHT22;15858;48.338;11.078;2024-03-02T02:38:46;6.00;99.90
28677;DHT22;15858;48.338;11.078;2024-03-02T02:41:14;6.10;99.90
28677;DHT22;15858;48.338;11.078;2024-03-02T02:43:41;6.00;99.90
28677;DHT22;15858;48.338;11.078;2024-03-02T02:46:08;6.00;99.90
28677;DHT22;15858;48.338;11.078;2024-03-02T02:48:34;6.00;99.90
28677;DHT22;15858;48.338;11.078;2024-03-02T02:51:01;6.00;99.90
28677;DHT22;15858;48.338;11.078;2024-03-02T02:53:28;5.90;99.90
28677;DHT22;15858;48.338;11.078;2024-03-02T02:55:54;6.00;99.90
28677;DHT22;15858;48.338;11.078;2024-03-02T02:58:21;6.00;99.90
28677;DHT22;15858;48.338;11.078;2024-03-02T03:00:48;6.00;99.90
28677;DHT22;15858;48.338;11.078;2024-03-02T03:03:14;6.00;99.90
28677;DHT22;15858;48.338;11.078;2024-03-02T03:05:41;6.00;99.90
28677;DHT22;15858;48.338;11.078;2024-03-02T03:08:08;6.00;99.90
28677;DHT22;15858;48.338;11.078;2024-03-02T03:10:35;6.00;99.90
28677;DHT22;15858;48.338;11.078;2024-03-02T03:13:01;6.00;99.90
28677;DHT22;15858;48.338;11.078;2024-03-02T03:15:28;6.00;99.90
28677;DHT22;15858;48.338;11.078;2024-03-02T03:17:55;6.00;99.90
28677;DHT22;15858;48.338;11.078;2024-03-02T03:20:22;6.00;99.90
28677;DHT22;15858;48.338;11.078;2024-03-02T03:22:48;6.00;99.90
28677;DHT22;15858;48.338;11.078;2024-03-02T03:25:15;6.00;99.90
28677;DHT22;15858;48.338;11.078;2024-03-02T03:27:42;6.00;99.90
28677;DHT22;15858;48.338;11.078;2024-03-02T03:30:09;5.90;99.90
28677;DHT22;15858;48.338;11.078;2024-03-02T03:32:36;5.90;99.90
28677;DHT22;15858;48.338;11.078;2024-03-02T03:35:03;6.00;99.90
28677;DHT22;15858;48.338;11.078;2024-03-02T03:37:31;5.90;99.90
28677;DHT22;15858;48.338;11.078;2024-03-02T03:39:57;5.90;99.90
28677;DHT22;15858;48.338;11.078;2024-03-02T03:42:24;5.90;99.90
28677;DHT22;15858;48.338;11.078;2024-03-02T03:44:51;5.90;99.90
28677;DHT22;15858;48.338;11.078;2024-03-02T03:47:18;5.90;99.90
28677;DHT22;15858;48.338;11.078;2024-03-02T03:49:44;5.90;99.90
28677;DHT22;15858;48.338;11.078;2024-03-02T03:52:11;5.90;99.90
28677;DHT22;15858;48.338;11.078;2024-03-02T03:54:38;5.90;99.90
28677;DHT22;15858;48.338;11.078;2024-03-02T03:57:04;5.90;99.90
28677;DHT22;15858;48.338;11.078;2024-03-02T03:59:31;5.90;99.90
28677;DHT22;15858;48.338;11.078;2024-03-02T04:01:58;5.90;99.90
28677;DHT22;15858;48.338;11.078;2024-03-02T04:04:25;5.90;99.90
28677;DHT22;15858;48.338;11.078;2024-03-02T04:06:51;6.00;99.90
28677;DHT22;15858;48.338;11.078;2024-03-02T04:09:18;5.90;99.90
28677;DHT22;15858;48.338;11.078;2024-03-02T04:11:45;5.90;99.90
28677;DHT22;15858;48.338;11.078;2024-03-02T04:14:12;5.90;99.90
28677;DHT22;15858;48.338;11.078;2024-03-02T04:16:38;5.90;99.90
28677;DHT22;15858;48.338;11.078;2024-03-02T04:19:05;5.90;99.90
28677;DHT22;15858;48.338;11.078;2024-03-02T04:21:32;5.90;99.90
28677;DHT22;15858;48.338;11.078;2024-03-02T04:23:59;5.90;99.90
28677;DHT22;15858;48.338;11.078;2024-03-02T04:26:26;5.90;99.90
28677;DHT22;15858;48.338;11.078;2024-03-02T04:28:53;5.90;99.90
28677;DHT22;15858;48.338;11.078;2024-03-02T04:31:20;5.90;99.90
28677;DHT22;15858;48.338;11.078;2024-03-02T04:33:47;5.90;99.90
28677;DHT22;15858;48.338;11.078;2024-03-02T04:36:14;5.90;99.90
28677;DHT22;15858;48.338;11.078;2024-03-02T04:38:40;5.80;99.90
28677;DHT22;15858;48.338;11.078;2024-03-02T04:41:07;5.90;99.90
28677;DHT22;15858;48.338;11.078;2024-03-02T04:43:34;5.90;99.90
28677;DHT22;15858;48.338;11.078;2024-03-02T04:46:01;5.90;99.90
28677;DHT22;15858;48.338;11.078;2024-03-02T04:48:28;5.90;99.90
28677;DHT22;15858;48.338;11.078;2024-03-02T04:50:55;5.80;99.90
28677;DHT22;15858;48.338;11.078;2024-03-02T04:53:22;5.90;99.90
28677;DHT22;15858;48.338;11.078;2024-03-02T04:55:49;5.80;99.90
28677;DHT22;15858;48.338;11.078;2024-03-02T04:58:15;5.80;99.90
28677;DHT22;15858;48.338;11.078;2024-03-02T05:00:42;5.80;99.90
28677;DHT22;15858;48.338;11.078;2024-03-02T05:03:09;5.80;99.90
28677;DHT22;15858;48.338;11.078;2024-03-02T05:05:35;5.80;99.90
28677;DHT22;15858;48.338;11.078;2024-03-02T05:08:02;5.80;99.90
28677;DHT22;15858;48.338;11.078;2024-03-02T05:10:29;5.80;99.90
28677;DHT22;15858;48.338;11.078;2024-03-02T05:12:56;5.80;99.90
28677;DHT22;15858;48.338;11.078;2024-03-02T05:15:22;5.80;99.90
28677;DHT22;15858;48.338;11.078;2024-03-02T05:17:49;5.80;99.90
28677;DHT22;15858;48.338;11.078;2024-03-02T05:20:16;5.80;99.90
28677;DHT22;15858;48.338;11.078;2024-03-02T05:22:43;5.80;99.90
28677;DHT22;15858;48.338;11.078;2024-03-02T05:25:09;5.70;99.90
28677;DHT22;15858;48.338;11.078;2024-03-02T05:27:36;5.70;99.90
28677;DHT22;15858;48.338;11.078;2024-03-02T05:30:03;5.60;99.90
28677;DHT22;15858;48.338;11.078;2024-03-02T05:32:30;5.60;99.90
28677;DHT22;15858;48.338;11.078;2024-03-02T05:34:57;5.60;99.90
28677;DHT22;15858;48.338;11.078;2024-03-02T05:37:23;5.50;99.90
28677;DHT22;15858;48.338;11.078;2024-03-02T05:39:50;5.60;99.90
28677;DHT22;15858;48.338;11.078;2024-03-02T05:42:17;5.60;99.90
28677;DHT22;15858;48.338;11.078;2024-03-02T05:44:43;5.60;99.90
28677;DHT22;15858;48.338;11.078;2024-03-02T05:47:10;5.50;99.90
28677;DHT22;15858;48.338;11.078;2024-03-02T05:49:37;5.50;99.90
28677;DHT22;15858;48.338;11.078;2024-03-02T05:52:04;5.50;99.90
28677;DHT22;15858;48.338;11.078;2024-03-02T05:54:31;5.50;99.90
28677;DHT22;15858;48.338;11.078;2024-03-02T05:56:58;5.50;99.90
28677;DHT22;15858;48.338;11.078;2024-03-02T05:59:25;5.40;99.90
28677;DHT22;15858;48.338;11.078;2024-03-02T06:01:51;5.40;99.90
28677;DHT22;15858;48.338;11.078;2024-03-02T06:04:18;5.40;99.90
28677;DHT22;15858;48.338;11.078;2024-03-02T06:06:45;5.40;99.90
28677;DHT22;15858;48.338;11.078;2024-03-02T06:09:12;5.40;99.90
28677;DHT22;15858;48.338;11.078;2024-03-02T06:11:40;5.40;99.90
28677;DHT22;15858;48.338;11.078;2024-03-02T06:14:08;5.30;99.90
28677;DHT22;15858;48.338;11.078;2024-03-02T06:16:35;5.30;99.90
28677;DHT22;15858;48.338;11.078;2024-03-02T06:19:02;5.30;99.90
28677;DHT22;15858;48.338;11.078;2024-03-02T06:21:29;5.30;99.90
28677;DHT22;15858;48.338;11.078;2024-03-02T06:23:56;5.30;99.90
28677;DHT22;15858;48.338;11.078;2024-03-02T06:26:24;5.30;99.90
28677;DHT22;15858;48.338;11.078;2024-03-02T06:28:52;5.30;99.90
28677;DHT22;15858;48.338;11.078;2024-03-02T06:31:19;5.30;99.90
28677;DHT22;15858;48.338;11.078;2024-03-02T06:33:45;5.30;99.90
28677;DHT22;15858;48.338;11.078;2024-03-02T06:36:12;5.30;99.90
28677;DHT22;15858;48.338;11.078;2024-03-02T06:38:39;5.30;99.90
28677;DHT22;15858;48.338;11.078;2024-03-02T06:41:09;5.30;99.90
28677;DHT22;15858;48.338;11.078;2024-03-02T06:43:36;5.20;99.90
28677;DHT22;15858;48.338;11.078;2024-03-02T06:46:02;5.20;99.90
28677;DHT22;15858;48.338;11.078;2024-03-02T06:48:29;5.20;99.90
28677;DHT22;15858;48.338;11.078;2024-03-02T06:50:56;5.20;99.90
28677;DHT22;15858;48.338;11.078;2024-03-02T06:53:23;5.10;99.90
28677;DHT22;15858;48.338;11.078;2024-03-02T06:55:50;5.10;99.90
28677;DHT22;15858;48.338;11.078;2024-03-02T06:58:16;5.10;99.90
28677;DHT22;15858;48.338;11.078;2024-03-02T07:00:43;5.20;99.90
28677;DHT22;15858;48.338;11.078;2024-03-02T07:03:10;5.20;99.90
28677;DHT22;15858;48.338;11.078;2024-03-02T07:05:37;5.30;99.90
28677;DHT22;15858;48.338;11.078;2024-03-02T07:08:04;5.40;99.90
28677;DHT22;15858;48.338;11.078;2024-03-02T07:10:30;5.50;99.90
28677;DHT22;15858;48.338;11.078;2024-03-02T07:12:57;5.70;99.90
28677;DHT22;15858;48.338;11.078;2024-03-02T07:15:24;5.90;99.90
28677;DHT22;15858;48.338;11.078;2024-03-02T07:17:51;6.00;99.90
28677;DHT22;15858;48.338;11.078;2024-03-02T07:20:17;6.20;99.90
28677;DHT22;15858;48.338;11.078;2024-03-02T07:22:44;6.50;99.90
28677;DHT22;15858;48.338;11.078;2024-03-02T07:25:11;6.60;99.90
28677;DHT22;15858;48.338;11.078;2024-03-02T07:27:41;6.60;99.90
28677;DHT22;15858;48.338;11.078;2024-03-02T07:30:08;6.60;99.90
28677;DHT22;15858;48.338;11.078;2024-03-02T07:32:35;6.80;99.90
28677;DHT22;15858;48.338;11.078;2024-03-02T07:35:02;6.90;99.90
28677;DHT22;15858;48.338;11.078;2024-03-02T07:37:28;6.90;99.90
28677;DHT22;15858;48.338;11.078;2024-03-02T07:39:55;6.90;99.90
28677;DHT22;15858;48.338;11.078;2024-03-02T07:42:22;7.00;99.90
28677;DHT22;15858;48.338;11.078;2024-03-02T07:44:49;7.20;99.90
28677;DHT22;15858;48.338;11.078;2024-03-02T09:35:53;9.60;99.90
28677;DHT22;15858;48.338;11.078;2024-03-02T09:38:21;9.60;99.90
28677;DHT22;15858;48.338;11.078;2024-03-02T09:40:47;9.60;99.90
28677;DHT22;15858;48.338;11.078;2024-03-02T09:43:14;9.60;99.90
28677;DHT22;15858;48.338;11.078;2024-03-02T09:45:41;9.90;99.90
28677;DHT22;15858;48.338;11.078;2024-03-02T09:48:08;9.80;99.90
28677;DHT22;15858;48.338;11.078;2024-03-02T09:50:35;9.90;99.90
28677;DHT22;15858;48.338;11.078;2024-03-02T09:53:01;10.10;99.90
28677;DHT22;15858;48.338;11.078;2024-03-02T09:55:28;10.20;99.90
28677;DHT22;15858;48.338;11.078;2024-03-02T09:57:55;10.20;99.90
28677;DHT22;15858;48.338;11.078;2024-03-02T10:00:21;10.20;99.90
28677;DHT22;15858;48.338;11.078;2024-03-02T10:02:48;10.40;99.90
28677;DHT22;15858;48.338;11.078;2024-03-02T10:05:27;10.40;99.90
28677;DHT22;15858;48.338;11.078;2024-03-02T10:08:00;10.40;99.90
28677;DHT22;15858;48.338;11.078;2024-03-02T10:10:40;10.60;99.90
28677;DHT22;15858;48.338;11.078;2024-03-02T10:13:12;10.60;99.90
28677;DHT22;15858;48.338;11.078;2024-03-02T10:15:39;10.70;99.90
28677;DHT22;15858;48.338;11.078;2024-03-02T10:18:10;10.60;99.90
28677;DHT22;15858;48.338;11.078;2024-03-02T10:20:38;10.70;99.90
28677;DHT22;15858;48.338;11.078;2024-03-02T10:23:13;10.80;99.90
28677;DHT22;15858;48.338;11.078;2024-03-02T10:25:40;10.90;99.90
28677;DHT22;15858;48.338;11.078;2024-03-02T10:28:20;10.80;99.90
28677;DHT22;15858;48.338;11.078;2024-03-02T10:30:48;10.90;99.90
28677;DHT22;15858;48.338;11.078;2024-03-02T10:33:14;10.90;99.90
28677;DHT22;15858;48.338;11.078;2024-03-02T10:35:42;10.80;99.90
28677;DHT22;15858;48.338;11.078;2024-03-02T10:38:11;10.80;99.90
28677;DHT22;15858;48.338;11.078;2024-03-02T10:40:38;10.90;99.90
28677;DHT22;15858;48.338;11.078;2024-03-02T10:43:05;10.90;99.90
28677;DHT22;15858;48.338;11.078;2024-03-02T10:45:32;11.00;99.90
28677;DHT22;15858;48.338;11.078;2024-03-02T10:48:01;11.10;99.90
28677;DHT22;15858;48.338;11.078;2024-03-02T10:50:29;11.10;99.90
28677;DHT22;15858;48.338;11.078;2024-03-02T10:52:56;11.10;99.90
28677;DHT22;15858;48.338;11.078;2024-03-02T10:55:23;11.10;99.90
28677;DHT22;15858;48.338;11.078;2024-03-02T10:57:54;11.30;99.90
28677;DHT22;15858;48.338;11.078;2024-03-02T11:00:21;11.30;99.90
28677;DHT22;15858;48.338;11.078;2024-03-02T11:02:52;11.50;99.90
28677;DHT22;15858;48.338;11.078;2024-03-02T11:05:34;11.70;99.90
28677;DHT22;15858;48.338;11.078;2024-03-02T11:08:06;11.80;99.90
28677;DHT22;15858;48.338;11.078;2024-03-02T11:10:37;11.90;99.90
28677;DHT22;15858;48.338;11.078;2024-03-02T11:13:09;11.90;99.90
28677;DHT22;15858;48.338;11.078;2024-03-02T11:15:36;12.00;99.90
28677;DHT22;15858;48.338;11.078;2024-03-02T11:18:06;12.00;99.90
28677;DHT22;15858;48.338;11.078;2024-03-02T11:20:37;12.10;99.90
28677;DHT22;15858;48.338;11.078;2024-03-02T11:23:06;12.20;99.90
28677;DHT22;15858;48.338;11.078;2024-03-02T11:25:33;12.30;99.90
28677;DHT22;15858;48.338;11.078;2024-03-02T11:28:02;12.40;99.90
28677;DHT22;15858;48.338;11.078;2024-03-02T11:33:03;12.50;99.90
28677;DHT22;15858;48.338;11.078;2024-03-02T11:35:30;12.50;99.90
28677;DHT22;15858;48.338;11.078;2024-03-02T11:37:57;12.70;99.90
28677;DHT22;15858;48.338;11.078;2024-03-02T11:40:25;12.70;99.90
28677;DHT22;15858;48.338;11.078;2024-03-02T11:42:53;12.80;99.90
28677;DHT22;15858;48.338;11.078;2024-03-02T11:45:29;12.70;99.90
28677;DHT22;15858;48.338;11.078;2024-03-02T11:47:57;13.00;99.90
28677;DHT22;15858;48.338;11.078;2024-03-02T11:50:34;13.00;99.90
28677;DHT22;15858;48.338;11.078;2024-03-02T11:53:01;13.00;99.90
28677;DHT22;15858;48.338;11.078;2024-03-02T11:55:30;12.90;99.90
28677;DHT22;15858;48.338;11.078;2024-03-02T11:57:58;12.90;99.90
28677;DHT22;15858;48.338;11.078;2024-03-02T12:00:25;12.90;99.90
28677;DHT22;15858;48.338;11.078;2024-03-02T12:03:09;12.90;99.90
28677;DHT22;15858;48.338;11.078;2024-03-02T12:05:36;13.10;99.90
28677;DHT22;15858;48.338;11.078;2024-03-02T12:08:05;13.10;99.90
28677;DHT22;15858;48.338;11.078;2024-03-02T12:10:32;13.10;99.90
28677;DHT22;15858;48.338;11.078;2024-03-02T12:13:01;13.30;99.90
28677;DHT22;15858;48.338;11.078;2024-03-02T12:15:30;13.30;99.90
28677;DHT22;15858;48.338;11.078;2024-03-02T12:17:59;13.40;99.90
28677;DHT22;15858;48.338;11.078;2024-03-02T12:20:27;13.50;99.90
28677;DHT22;15858;48.338;11.078;2024-03-02T12:22:55;13.60;99.90
28677;DHT22;15858;48.338;11.078;2024-03-02T12:25:23;13.70;99.90
28677;DHT22;15858;48.338;11.078;2024-03-02T12:27:53;13.70;99.90
28677;DHT22;15858;48.338;11.078;2024-03-02T12:30:20;13.80;99.90
28677;DHT22;15858;48.338;11.078;2024-03-02T12:32:48;13.90;99.90
28677;DHT22;15858;48.338;11.078;2024-03-02T12:35:15;14.00;99.90
28677;DHT22;15858;48.338;11.078;2024-03-02T12:37:51;14.10;99.90
28677;DHT22;15858;48.338;11.078;2024-03-02T12:40:19;14.30;99.90
28677;DHT22;15858;48.338;11.078;2024-03-02T12:42:47;14.30;99.90
28677;DHT22;15858;48.338;11.078;2024-03-02T12:45:14;14.30;99.90
28677;DHT22;15858;48.338;11.078;2024-03-02T12:47:42;14.30;99.90
28677;DHT22;15858;48.338;11.078;2024-03-02T12:50:10;14.30;99.90
28677;DHT22;15858;48.338;11.078;2024-03-02T12:52:36;14.30;99.90
28677;DHT22;15858;48.338;11.078;2024-03-02T12:55:05;14.30;99.90
28677;DHT22;15858;48.338;11.078;2024-03-02T12:57:33;14.50;99.90
28677;DHT22;15858;48.338;11.078;2024-03-02T13:00:05;14.50;99.90
28677;DHT22;15858;48.338;11.078;2024-03-02T13:02:32;14.60;99.90
28677;DHT22;15858;48.338;11.078;2024-03-02T13:04:58;14.60;99.90
28677;DHT22;15858;48.338;11.078;2024-03-02T13:07:25;14.80;99.90
28677;DHT22;15858;48.338;11.078;2024-03-02T13:09:56;14.70;99.90
28677;DHT22;15858;48.338;11.078;2024-03-02T13:12:24;14.70;99.90
28677;DHT22;15858;48.338;11.078;2024-03-02T13:14:54;14.70;99.90
28677;DHT22;15858;48.338;11.078;2024-03-02T13:17:21;14.70;99.90
28677;DHT22;15858;48.338;11.078;2024-03-02T13:19:57;14.60;99.90
28677;DHT22;15858;48.338;11.078;2024-03-02T13:22:24;14.60;99.90
28677;DHT22;15858;48.338;11.078;2024-03-02T13:24:52;14.60;99.90
28677;DHT22;15858;48.338;11.078;2024-03-02T13:27:19;14.70;99.90
28677;DHT22;15858;48.338;11.078;2024-03-02T13:29:46;14.80;99.90
28677;DHT22;15858;48.338;11.078;2024-03-02T13:32:16;14.90;99.90
28677;DHT22;15858;48.338;11.078;2024-03-02T13:34:43;15.00;99.90
28677;DHT22;15858;48.338;11.078;2024-03-02T13:37:10;15.10;99.90
28677;DHT22;15858;48.338;11.078;2024-03-02T13:39:37;15.20;99.90
28677;DHT22;15858;48.338;11.078;2024-03-02T13:42:04;15.20;99.90
28677;DHT22;15858;48.338;11.078;2024-03-02T13:44:31;15.10;99.90
28677;DHT22;15858;48.338;11.078;2024-03-02T13:47:00;15.00;99.90
28677;DHT22;15858;48.338;11.078;2024-03-02T13:49:27;15.00;99.90
28677;DHT22;15858;48.338;11.078;2024-03-02T13:51:53;14.90;99.90
28677;DHT22;15858;48.338;11.078;2024-03-02T13:54:20;15.00;99.90
28677;DHT22;15858;48.338;11.078;2024-03-02T13:56:47;15.00;99.90
28677;DHT22;15858;48.338;11.078;2024-03-02T13:59:14;14.70;99.90
28677;DHT22;15858;48.338;11.078;2024-03-02T14:01:41;14.70;99.90
28677;DHT22;15858;48.338;11.078;2024-03-02T14:04:07;14.70;99.90
28677;DHT22;15858;48.338;11.078;2024-03-02T14:06:34;14.60;99.90
28677;DHT22;15858;48.338;11.078;2024-03-02T14:09:01;14.60;99.90
28677;DHT22;15858;48.338;11.078;2024-03-02T14:11:28;14.60;99.90
28677;DHT22;15858;48.338;11.078;2024-03-02T14:13:54;14.50;99.90
28677;DHT22;15858;48.338;11.078;2024-03-02T14:16:21;14.50;99.90
28677;DHT22;15858;48.338;11.078;2024-03-02T14:18:48;14.50;99.90
28677;DHT22;15858;48.338;11.078;2024-03-02T14:21:14;14.70;99.90
28677;DHT22;15858;48.338;11.078;2024-03-02T14:23:41;14.60;99.90
28677;DHT22;15858;48.338;11.078;2024-03-02T14:26:08;14.60;99.90
28677;DHT22;15858;48.338;11.078;2024-03-02T14:28:34;14.50;99.90
28677;DHT22;15858;48.338;11.078;2024-03-02T14:31:16;14.70;99.90
28677;DHT22;15858;48.338;11.078;2024-03-02T14:33:43;14.80;99.90
28677;DHT22;15858;48.338;11.078;2024-03-02T14:36:09;14.70;99.90
28677;DHT22;15858;48.338;11.078;2024-03-02T14:38:37;14.70;99.90
28677;DHT22;15858;48.338;11.078;2024-03-02T14:41:04;14.50;99.90
28677;DHT22;15858;48.338;11.078;2024-03-02T14:43:31;14.60;99.90
28677;DHT22;15858;48.338;11.078;2024-03-02T14:45:58;14.70;99.90
28677;DHT22;15858;48.338;11.078;2024-03-02T14:48:25;14.90;99.90
28677;DHT22;15858;48.338;11.078;2024-03-02T14:50:52;14.90;99.90
28677;DHT22;15858;48.338;11.078;2024-03-02T14:53:19;14.80;99.90
28677;DHT22;15858;48.338;11.078;2024-03-02T14:55:45;14.70;99.90
28677;DHT22;15858;48.338;11.078;2024-03-02T14:58:12;14.60;99.90
28677;DHT22;15858;48.338;11.078;2024-03-02T15:00:39;14.50;99.90
28677;DHT22;15858;48.338;11.078;2024-03-02T15:03:06;14.40;99.90
28677;DHT22;15858;48.338;11.078;2024-03-02T15:05:32;14.30;99.90
28677;DHT22;15858;48.338;11.078;2024-03-02T15:07:59;14.30;99.90
28677;DHT22;15858;48.338;11.078;2024-03-02T15:10:26;14.20;99.90
28677;DHT22;15858;48.338;11.078;2024-03-02T15:12:52;14.10;99.90
28677;DHT22;15858;48.338;11.078;2024-03-02T15:15:19;14.30;99.90
28677;DHT22;15858;48.338;11.078;2024-03-02T15:17:46;14.20;99.90
28677;DHT22;15858;48.338;11.078;2024-03-02T15:20:13;14.10;99.90
28677;DHT22;15858;48.338;11.078;2024-03-02T15:22:40;13.80;99.90
28677;DHT22;15858;48.338;11.078;2024-03-02T15:25:07;14.00;99.90
28677;DHT22;15858;48.338;11.078;2024-03-02T15:27:34;13.80;99.90
28677;DHT22;15858;48.338;11.078;2024-03-02T15:30:01;13.90;99.90
28677;DHT22;15858;48.338;11.078;2024-03-02T15:32:28;13.80;99.90
28677;DHT22;15858;48.338;11.078;2024-03-02T15:34:54;14.00;99.90
28677;DHT22;15858;48.338;11.078;2024-03-02T15:37:21;13.90;99.90
28677;DHT22;15858;48.338;11.078;2024-03-02T15:39:48;13.80;99.90
28677;DHT22;15858;48.338;11.078;2024-03-02T15:42:15;13.50;99.90
28677;DHT22;15858;48.338;11.078;2024-03-02T15:44:41;13.20;99.90
28677;DHT22;15858;48.338;11.078;2024-03-02T15:47:10;13.10;99.90
28677;DHT22;15858;48.338;11.078;2024-03-02T15:49:37;13.00;99.90
28677;DHT22;15858;48.338;11.078;2024-03-02T15:52:03;12.90;99.90
28677;DHT22;15858;48.338;11.078;2024-03-02T15:54:30;12.80;99.90
28677;DHT22;15858;48.338;11.078;2024-03-02T15:56:57;12.50;99.90
28677;DHT22;15858;48.338;11.078;2024-03-02T15:59:24;12.60;99.90
28677;DHT22;15858;48.338;11.078;2024-03-02T16:01:51;12.40;99.90
28677;DHT22;15858;48.338;11.078;2024-03-02T16:04:18;12.40;99.90
28677;DHT22;15858;48.338;11.078;2024-03-02T16:06:45;12.30;99.90
28677;DHT22;15858;48.338;11.078;2024-03-02T16:09:11;12.20;99.90
28677;DHT22;15858;48.338;11.078;2024-03-02T16:11:38;12.00;99.90
28677;DHT22;15858;48.338;11.078;2024-03-02T16:14:05;11.90;99.90
28677;DHT22;15858;48.338;11.078;2024-03-02T16:16:32;12.00;99.90
28677;DHT22;15858;48.338;11.078;2024-03-02T16:18:58;11.70;99.90
28677;DHT22;15858;48.338;11.078;2024-03-02T16:21:25;11.70;99.90
28677;DHT22;15858;48.338;11.078;2024-03-02T16:23:52;11.70;99.90
28677;DHT22;15858;48.338;11.078;2024-03-02T16:26:18;11.60;99.90
28677;DHT22;15858;48.338;11.078;2024-03-02T16:28:45;11.50;99.90
28677;DHT22;15858;48.338;11.078;2024-03-02T16:31:12;11.60;99.90
28677;DHT22;15858;48.338;11.078;2024-03-02T16:33:38;11.40;99.90
28677;DHT22;15858;48.338;11.078;2024-03-02T16:36:08;11.50;99.90
28677;DHT22;15858;48.338;11.078;2024-03-02T16:38:35;11.40;99.90
28677;DHT22;15858;48.338;11.078;2024-03-02T16:41:02;11.30;99.90
28677;DHT22;15858;48.338;11.078;2024-03-02T16:43:28;11.30;99.90
28677;DHT22;15858;48.338;11.078;2024-03-02T16:45:55;11.20;99.90
28677;DHT22;15858;48.338;11.078;2024-03-02T16:48:22;11.00;99.90
28677;DHT22;15858;48.338;11.078;2024-03-02T16:50:49;11.00;99.90
28677;DHT22;15858;48.338;11.078;2024-03-02T16:53:16;10.90;99.90
28677;DHT22;15858;48.338;11.078;2024-03-02T16:55:42;10.90;99.90
28677;DHT22;15858;48.338;11.078;2024-03-02T16:58:09;10.90;99.90
28677;DHT22;15858;48.338;11.078;2024-03-02T17:00:36;10.70;99.90
28677;DHT22;15858;48.338;11.078;2024-03-02T17:03:03;10.80;99.90
28677;DHT22;15858;48.338;11.078;2024-03-02T17:05:30;10.60;99.90
28677;DHT22;15858;48.338;11.078;2024-03-02T17:07:57;10.70;99.90
28677;DHT22;15858;48.338;11.078;2024-03-02T17:10:23;10.60;99.90
28677;DHT22;15858;48.338;11.078;2024-03-02T17:12:50;10.60;99.90
28677;DHT22;15858;48.338;11.078;2024-03-02T17:15:17;10.60;99.90
28677;DHT22;15858;48.338;11.078;2024-03-02T17:17:43;10.40;99.90
28677;DHT22;15858;48.338;11.078;2024-03-02T17:20:10;10.40;99.90
28677;DHT22;15858;48.338;11.078;2024-03-02T17:22:37;10.40;99.90
28677;DHT22;15858;48.338;11.078;2024-03-02T17:25:04;10.40;99.90